Accueil
METAR-TAF:

METAR-TAF

Aéroports :

Aéroport civil d'Amman

Amman, Jordanie

latitude: 31-59N, longitude: 035-59E, altitude: 767 m

Observation

Le bulletin a été fait il y a 54 minutes, à 06:00 UTC
Vent calme
Température 5°C
Humidité 81%
Pression 1017 hPa
Visibilité: 3000 m
brume

METAR: OJAM 230600Z 00000KT 3000 BR NSC 05/02 Q1017 NOSIG

Heure: 08:54 (06:54 UTC)

Prévision

Le bulletin a été fait il y a 1 heure et 53 minutes, à 05:01 UTC
Prévision valable du 23 à 06 UTC au 24 à 12 UTC
Vent 2 kt de direction variable
Visibilité: 2000 m
brume
Evoluant progressivement
du 23 à 06 UTC au 23 à 08 UTC
Vent 10 kt de sud-est
Visibilité: 5000 m
brume sèche
Probabilité 30%
du 23 à 12 UTC au 23 à 24 UTC
Visibilité: 3000 m
poussière généralisée

TAF: OJAM 230501Z 2306/2412 VRB02KT 2000 BR NSC BECMG 2306/2308 13010KT 5000 HZ PROB30 2312/2324 3000 DU

Observations et prévisions météorologiques de plus de 4000 aéroports (messages METAR et TAF).

Les stations disponibles sont représentées par des disques jaunes et rouges sur la carte.

Passer la souris dessus pour voir le nom de la station.

Cliquer dessus pour voir les observations et prévisions météorologiques.

Pour changer de carte: cliquez sur les boutons verts avec une croix noire pour zoomer, sur le bouton vert avec un tiret pour effectuer un zoom arrière, ou sur les flèches vertes pour les cartes adjacentes.


METAR-TAF: